This is the latest recevied weather packets stored in our database for station/object YC0TBU-4. If no packets are shown the sender has not sent any weather packets the latest 10 day(s).
| Time | Temp. | Humidity | Pressure | Rain* | Wind** | Luminosity | Snow |
|---|---|---|---|---|---|---|---|
| 1778002007 | 30.56° C | 39% | 1012.5 hPa | - | - | - | - |
| 1778001072 | 30.56° C | 39% | 1012.7 hPa | - | - | - | - |
| 1778000137 | 29.44° C | 41% | 1012.6 hPa | - | - | - | - |
| 1777999202 | 29.44° C | 42% | 1012.7 hPa | - | - | - | - |
| 1777998267 | 29.44° C | 42% | 1012.4 hPa | - | - | - | - |
| 1777997332 | 30° C | 41% | 1012.4 hPa | - | - | - | - |
| 1777996397 | 30° C | 41% | 1012.2 hPa | - | - | - | - |
| 1777995462 | 29.44° C | 42% | 1012.4 hPa | - | - | - | - |
| 1777994527 | 29.44° C | 42% | 1012.1 hPa | - | - | - | - |
| 1777993592 | 29.44° C | 42% | 1012.8 hPa | - | - | - | - |
| 1777992657 | 29.44° C | 42% | 1013.1 hPa | - | - | - | - |
| 1777991722 | 29.44° C | 43% | 1013 hPa | - | - | - | - |
| 1777990787 | 30° C | 42% | 1013.8 hPa | - | - | - | - |
| 1777989835 | 28.33° C | 45% | 1011 hPa | - | - | - | - |
| 1777988901 | 29.44° C | 43% | 1010.9 hPa | - | - | - | - |
| 1777987965 | 28.89° C | 44% | 1011 hPa | - | - | - | - |
| 1777987030 | 29.44° C | 43% | 1010.8 hPa | - | - | - | - |
| 1777986095 | 29.44° C | 43% | 1010.2 hPa | - | - | - | - |
| 1777985160 | 29.44° C | 42% | 1010.9 hPa | - | - | - | - |
| 1777984225 | 29.44° C | 42% | 1010.1 hPa | - | - | - | - |
| 1777983290 | 29.44° C | 43% | 1010.1 hPa | - | - | - | - |
| 1777982339 | 27.22° C | 47% | 1010.3 hPa | - | - | - | - |
| 1777981404 | 28.33° C | 46% | 1010.2 hPa | - | - | - | - |
| 1777980469 | 30.56° C | 41% | 1009.7 hPa | - | - | - | - |
| 1777979534 | 30.56° C | 41% | 1011.1 hPa | - | - | - | - |
* Rain since midnight (hover to see other rain measurements)
** Current wind speed in m/s (hover to see current wind gust speed)